createdAt,value
2022-09-12T00:02:20.265Z,9.07
2022-09-12T00:05:23.086Z,8.67
2022-09-12T00:08:24.960Z,7.60
2022-09-12T00:11:27.599Z,5.40
2022-09-12T00:14:29.999Z,6.35
2022-09-12T00:17:34.630Z,6.75
2022-09-12T00:20:36.416Z,4.35
2022-09-12T00:23:38.220Z,6.78
2022-09-12T00:26:40.100Z,4.90
2022-09-12T00:29:41.894Z,4.77
2022-09-12T00:32:43.760Z,6.00
2022-09-12T00:35:52.876Z,5.95
2022-09-12T00:38:54.886Z,4.63
2022-09-12T00:41:56.724Z,6.97
2022-09-12T00:44:58.509Z,7.03
2022-09-12T00:48:04.479Z,7.00
2022-09-12T00:51:06.446Z,6.22
2022-09-12T00:54:17.111Z,7.47
2022-09-12T00:57:23.826Z,5.25
2022-09-12T01:00:26.995Z,5.32
2022-09-12T01:03:29.126Z,7.53
2022-09-12T01:06:37.204Z,7.13
2022-09-12T01:09:39.932Z,5.10
2022-09-12T01:12:43.654Z,5.78
2022-09-12T01:15:45.932Z,6.70
2022-09-12T01:19:06.334Z,5.13
2022-09-12T01:22:26.603Z,7.18
2022-09-12T01:25:56.059Z,6.10
2022-09-12T01:29:26.751Z,5.93
2022-09-12T01:32:36.066Z,5.57
2022-09-12T01:36:08.814Z,6.20
2022-09-12T01:39:13.439Z,7.80
2022-09-12T01:42:29.707Z,9.43
2022-09-12T01:46:04.979Z,8.10
2022-09-12T01:49:27.112Z,4.57
2022-09-12T01:52:39.623Z,5.93
2022-09-12T01:55:51.366Z,5.78
2022-09-12T01:59:20.754Z,6.30
2022-09-12T02:02:28.065Z,9.30
2022-09-12T02:05:34.894Z,6.28
2022-09-12T02:08:49.161Z,7.45
2022-09-12T02:11:56.028Z,5.72
2022-09-12T02:15:03.552Z,6.75
2022-09-12T02:18:06.740Z,6.57
2022-09-12T02:21:09.204Z,5.95
2022-09-12T02:24:14.602Z,6.80
2022-09-12T02:27:24.870Z,5.43
2022-09-12T02:30:31.061Z,6.63
2022-09-12T02:33:45.054Z,5.65
2022-09-12T02:36:55.702Z,7.22
2022-09-12T02:39:58.921Z,5.28
2022-09-12T02:43:03.148Z,6.57
2022-09-12T02:46:08.330Z,5.43
2022-09-12T02:49:10.286Z,6.25
2022-09-12T02:52:12.330Z,5.07
2022-09-12T02:55:14.931Z,5.30
2022-09-12T02:58:20.039Z,7.63
2022-09-12T03:01:35.962Z,5.57
2022-09-12T03:04:51.660Z,4.32
2022-09-12T03:08:12.177Z,6.68
2022-09-12T03:11:34.167Z,6.97
2022-09-12T03:14:40.754Z,7.72
2022-09-12T03:18:00.591Z,6.40
2022-09-12T03:21:05.757Z,6.93
2022-09-12T03:24:16.166Z,6.93
2022-09-12T03:27:50.294Z,6.20
2022-09-12T03:30:54.399Z,6.65
2022-09-12T03:33:56.338Z,7.22
2022-09-12T03:36:58.259Z,6.30
2022-09-12T03:40:01.075Z,6.17
2022-09-12T03:46:05.543Z,6.43
2022-09-12T03:49:07.323Z,5.50
2022-09-12T03:52:09.077Z,6.85
2022-09-12T03:55:11.198Z,6.32
2022-09-12T03:58:13.090Z,7.07
2022-09-12T04:01:17.674Z,7.32
2022-09-12T04:04:19.625Z,4.78
2022-09-12T04:07:21.357Z,6.50
2022-09-12T04:10:23.170Z,7.72
2022-09-12T04:13:24.885Z,11.07
2022-09-12T04:16:26.724Z,5.80
2022-09-12T04:19:28.771Z,6.05
2022-09-12T04:22:32.005Z,5.33
2022-09-12T04:25:33.993Z,6.97
2022-09-12T04:28:37.270Z,6.30
2022-09-12T04:31:39.516Z,6.63
2022-09-12T04:34:41.843Z,5.03
2022-09-12T04:37:44.288Z,5.38
2022-09-12T04:40:46.155Z,6.90
2022-09-12T04:43:52.502Z,9.37
2022-09-12T04:46:54.196Z,6.18
2022-09-12T04:49:56.045Z,5.38
2022-09-12T04:52:57.845Z,5.30
2022-09-12T04:56:07.290Z,4.88
2022-09-12T04:59:10.181Z,5.85
2022-09-12T05:02:12.109Z,6.07
2022-09-12T05:05:13.924Z,4.30
2022-09-12T05:08:15.733Z,7.18
2022-09-12T05:11:25.582Z,5.28
2022-09-12T05:14:32.503Z,4.88
2022-09-12T05:17:34.295Z,7.32
2022-09-12T05:20:36.170Z,5.88
2022-09-12T05:23:38.186Z,4.60
2022-09-12T05:26:39.967Z,5.87
2022-09-12T05:29:43.077Z,4.50
2022-09-12T05:32:44.853Z,5.90
2022-09-12T05:35:52.528Z,5.13
2022-09-12T05:38:54.488Z,6.78
2022-09-12T05:41:56.443Z,7.23
2022-09-12T05:44:58.632Z,4.90
2022-09-12T05:48:00.456Z,4.53
2022-09-12T05:51:07.174Z,5.37
2022-09-12T05:54:11.105Z,4.60
2022-09-12T05:57:12.873Z,3.80
2022-09-12T06:00:15.418Z,4.80
2022-09-12T06:03:19.038Z,5.28
2022-09-12T06:06:23.322Z,5.83
2022-09-12T06:09:25.735Z,5.55
2022-09-12T06:12:30.025Z,5.78
2022-09-12T06:15:32.960Z,5.70
2022-09-12T06:18:35.836Z,5.78
2022-09-12T06:21:39.984Z,5.88
2022-09-12T06:24:41.760Z,7.22
2022-09-12T06:27:43.601Z,4.88
2022-09-12T06:30:45.411Z,4.97
2022-09-12T06:33:50.451Z,5.70
2022-09-12T06:36:52.149Z,5.38
2022-09-12T06:39:54.078Z,6.82
2022-09-12T06:42:55.882Z,5.70
2022-09-12T06:46:08.802Z,5.15
2022-09-12T06:49:11.143Z,5.20
2022-09-12T12:14:51.052Z,6.05
2022-09-12T12:18:26.094Z,9.35
2022-09-12T12:21:36.774Z,8.65
2022-09-12T12:25:12.281Z,12.85
2022-09-12T12:28:44.348Z,8.85
2022-09-12T12:32:04.396Z,11.80
2022-09-12T12:35:59.630Z,11.13
2022-09-12T12:39:33.101Z,8.38
2022-09-12T12:42:34.871Z,10.30
2022-09-12T12:45:47.901Z,6.93
2022-09-12T12:49:03.654Z,8.70
2022-09-12T12:52:05.552Z,7.53
2022-09-12T12:55:17.539Z,10.48
2022-09-12T12:58:36.343Z,7.25
2022-09-12T13:01:44.502Z,7.55
2022-09-12T13:04:46.630Z,6.53
2022-09-12T13:07:56.504Z,8.25
2022-09-12T13:11:07.529Z,13.38
2022-09-12T13:14:37.125Z,14.05
2022-09-12T13:17:43.153Z,11.35
2022-09-12T13:21:10.123Z,13.40
2022-09-12T13:24:17.179Z,6.50
2022-09-12T13:27:25.499Z,7.40
2022-09-12T13:30:29.332Z,23.85
2022-09-12T13:33:45.546Z,24.50
2022-09-12T13:37:11.389Z,15.00
2022-09-12T13:40:13.204Z,9.88
2022-09-12T13:43:18.631Z,9.35
2022-09-12T13:46:30.481Z,8.80
2022-09-12T13:49:37.067Z,8.93
2022-09-12T13:52:39.509Z,8.23
2022-09-12T13:58:57.060Z,8.00
2022-09-12T14:01:58.954Z,9.90
2022-09-12T14:05:13.197Z,7.93
2022-09-12T14:08:15.374Z,8.20
2022-09-12T14:11:28.936Z,11.77
2022-09-12T14:14:42.183Z,10.70
2022-09-12T14:17:51.950Z,8.10
2022-09-12T14:20:57.087Z,9.10
2022-09-12T14:24:01.561Z,9.55
2022-09-12T14:27:05.058Z,11.48
2022-09-12T14:30:32.079Z,26.15
2022-09-12T14:33:48.008Z,38.67
2022-09-12T14:36:53.954Z,37.67
2022-09-12T14:39:56.255Z,25.48
2022-09-12T14:43:01.195Z,16.92
2022-09-12T14:46:28.578Z,14.90
2022-09-12T14:49:37.354Z,11.75
2022-09-12T14:52:40.257Z,11.52
2022-09-12T14:55:47.436Z,10.57
2022-09-12T14:58:50.678Z,11.15
2022-09-12T15:02:21.223Z,9.43
2022-09-12T15:05:27.064Z,10.20
2022-09-12T15:08:30.363Z,8.27
2022-09-12T15:11:33.661Z,7.93
2022-09-12T15:14:35.612Z,9.07
2022-09-12T15:17:37.466Z,8.10
2022-09-12T15:20:42.566Z,8.80
2022-09-12T15:23:52.885Z,13.60
2022-09-12T15:26:54.834Z,32.97
2022-09-12T15:29:57.069Z,30.15
2022-09-12T15:33:00.179Z,22.35
2022-09-12T15:36:02.258Z,19.55
2022-09-12T15:39:04.311Z,23.15
2022-09-12T15:42:06.192Z,13.13
2022-09-12T15:45:26.035Z,20.67
2022-09-12T15:48:28.981Z,8.88
2022-09-12T16:02:34.584Z,10.82
2022-09-12T16:05:36.726Z,11.73
2022-09-12T16:08:38.629Z,16.00
2022-09-12T16:11:40.543Z,11.07
2022-09-12T16:14:42.362Z,7.00
2022-09-12T16:17:44.522Z,13.25
2022-09-12T16:20:46.266Z,12.30
2022-09-12T16:23:49.034Z,7.67
2022-09-12T16:26:50.915Z,10.90
2022-09-12T16:29:52.893Z,9.02
2022-09-12T16:32:54.704Z,7.65
2022-09-12T16:36:14.437Z,19.00
2022-09-12T16:39:16.320Z,45.00
2022-09-12T16:42:19.435Z,31.58
2022-09-12T16:45:25.182Z,25.35
2022-09-12T16:48:27.037Z,18.83
2022-09-12T16:51:32.449Z,16.20
2022-09-12T16:54:35.781Z,12.75
2022-09-12T16:57:37.633Z,11.40
2022-09-12T17:00:43.066Z,10.07
2022-09-12T17:03:44.919Z,7.30
2022-09-12T17:06:47.138Z,6.40
2022-09-12T17:09:51.417Z,5.38
2022-09-12T17:12:54.828Z,4.68
2022-09-12T17:15:57.102Z,5.68
2022-09-12T17:18:59.126Z,6.97
2022-09-12T17:22:04.674Z,5.38
2022-09-12T17:25:06.901Z,4.88
2022-09-12T17:28:08.768Z,4.70
2022-09-12T17:31:15.327Z,4.50
2022-09-12T17:34:18.675Z,5.22
2022-09-12T17:37:22.073Z,6.03
2022-09-12T17:40:37.228Z,6.05
2022-09-12T17:43:51.305Z,7.53
2022-09-12T17:46:55.005Z,5.60
2022-09-12T17:50:09.384Z,9.30
2022-09-12T17:53:21.510Z,8.32
2022-09-12T17:56:24.318Z,7.15
2022-09-12T18:02:32.955Z,6.30
2022-09-12T18:05:36.605Z,7.95
2022-09-12T18:08:38.594Z,8.70
2022-09-12T18:11:44.170Z,10.13
2022-09-12T18:14:46.345Z,14.13
2022-09-12T18:17:49.046Z,9.02
2022-09-12T18:24:03.141Z,11.15
2022-09-12T18:27:07.669Z,11.90
2022-09-12T18:30:21.436Z,15.65
2022-09-12T18:33:29.626Z,38.35
2022-09-12T18:36:34.598Z,36.00
2022-09-12T18:39:48.117Z,28.70
2022-09-12T18:42:53.063Z,22.20
2022-09-12T18:45:57.139Z,17.15
2022-09-12T18:52:02.890Z,19.55
2022-09-12T18:55:10.967Z,17.40
2022-09-12T18:58:12.978Z,18.60
2022-09-12T19:01:27.098Z,22.92
2022-09-12T19:04:29.216Z,20.63
2022-09-12T19:07:31.817Z,22.83
2022-09-12T19:13:44.153Z,18.92
2022-09-12T19:16:46.978Z,18.20
2022-09-12T19:22:56.260Z,15.82
2022-09-12T19:26:03.887Z,16.27
2022-09-12T19:29:07.872Z,13.88
2022-09-12T19:35:13.556Z,17.15
2022-09-12T19:38:16.003Z,14.07
2022-09-12T19:41:19.195Z,15.75
2022-09-12T19:44:21.132Z,13.25
2022-09-12T19:47:25.291Z,15.97
2022-09-12T19:50:27.658Z,14.50
2022-09-12T19:53:31.287Z,13.52
2022-09-12T19:56:33.247Z,13.98
2022-09-12T19:59:35.116Z,12.73
2022-09-12T20:02:37.198Z,11.40
2022-09-12T20:05:42.651Z,12.90
2022-09-12T20:08:45.898Z,10.68
2022-09-12T20:11:47.853Z,11.55
2022-09-12T20:14:49.685Z,15.10
2022-09-12T20:17:57.990Z,10.53
2022-09-12T20:21:31.648Z,11.10
2022-09-12T20:24:33.882Z,8.52
2022-09-12T20:27:35.696Z,8.87
2022-09-12T20:30:37.590Z,9.43
2022-09-12T20:33:39.551Z,10.03
2022-09-12T20:36:42.014Z,9.43
2022-09-12T20:39:46.825Z,8.95
2022-09-12T20:42:52.155Z,9.57
2022-09-12T20:45:54.262Z,10.07
2022-09-12T20:48:56.541Z,7.82
2022-09-12T20:51:58.300Z,9.13
2022-09-12T20:55:00.205Z,8.63
2022-09-12T20:58:02.009Z,10.33
2022-09-12T21:01:07.902Z,10.03
2022-09-12T21:04:13.053Z,10.45
2022-09-12T21:07:17.057Z,12.68
2022-09-12T21:10:19.330Z,11.43
2022-09-12T21:13:21.165Z,9.63
2022-09-12T21:16:23.699Z,10.27
2022-09-12T21:19:25.574Z,12.13
2022-09-12T21:22:27.470Z,13.40
2022-09-12T21:25:30.311Z,9.83
2022-09-12T21:28:32.181Z,13.57
2022-09-12T21:31:34.161Z,8.40
2022-09-12T21:34:35.972Z,10.20
2022-09-12T21:37:37.737Z,12.07
2022-09-12T21:40:39.511Z,11.15
2022-09-12T21:43:41.989Z,14.33
2022-09-12T21:46:43.893Z,19.10
2022-09-12T21:49:45.723Z,12.50
2022-09-12T21:52:47.726Z,10.77
2022-09-12T21:55:49.615Z,16.58
2022-09-12T21:58:51.909Z,16.37
2022-09-12T22:01:54.646Z,27.40
2022-09-12T22:08:00.727Z,10.85
2022-09-12T22:11:08.104Z,11.85
2022-09-12T22:14:10.688Z,10.35
2022-09-12T22:17:13.238Z,12.35
2022-09-12T22:20:15.219Z,9.18
2022-09-12T22:23:35.490Z,10.00
2022-09-12T22:26:43.320Z,13.88
2022-09-12T22:29:46.163Z,11.98
2022-09-12T22:35:52.456Z,12.05
2022-09-12T22:41:56.028Z,11.80
2022-09-12T22:44:57.883Z,9.70
2022-09-12T22:48:01.015Z,9.87
2022-09-12T22:51:03.191Z,9.38
2022-09-12T22:54:05.870Z,8.47
2022-09-12T23:00:13.315Z,8.27
2022-09-12T23:03:15.126Z,7.45
2022-09-12T23:06:17.554Z,8.13
2022-09-12T23:09:19.351Z,7.85
2022-09-12T23:12:21.188Z,8.50
2022-09-12T23:15:22.993Z,8.43
2022-09-12T23:18:25.063Z,7.67
2022-09-12T23:21:27.425Z,9.68
2022-09-12T23:24:29.506Z,8.82
2022-09-12T23:27:31.341Z,9.57
2022-09-12T23:30:33.158Z,8.10
2022-09-12T23:33:35.772Z,8.80
2022-09-12T23:36:37.667Z,8.85
2022-09-12T23:39:39.529Z,8.87
2022-09-12T23:42:41.539Z,9.33
2022-09-12T23:45:43.305Z,9.40
2022-09-12T23:48:45.190Z,10.82
2022-09-12T23:51:47.433Z,7.77
2022-09-12T23:54:49.316Z,10.52
2022-09-12T23:57:51.221Z,9.53
